sensor_id;sensor_type;location;lat;lon;timestamp;pressure;altitude;pressure_sealevel;temperature;humidity
62418;BME280;48456;54.242;10.280;2022-08-19T00:01:51;101073.31;;;18.54;100.00
62418;BME280;48456;54.242;10.280;2022-08-19T00:04:24;101063.41;;;18.56;100.00
62418;BME280;48456;54.242;10.280;2022-08-19T00:06:51;101062.53;;;18.57;100.00
62418;BME280;48456;54.242;10.280;2022-08-19T00:09:19;101063.28;;;18.61;100.00
62418;BME280;48456;54.242;10.280;2022-08-19T00:11:46;101056.22;;;18.59;100.00
62418;BME280;48456;54.242;10.280;2022-08-19T00:14:13;101065.06;;;18.61;100.00
62418;BME280;48456;54.242;10.280;2022-08-19T00:16:42;101069.53;;;18.62;100.00
62418;BME280;48456;54.242;10.280;2022-08-19T00:19:09;101059.84;;;18.57;100.00
62418;BME280;48456;54.242;10.280;2022-08-19T00:21:36;101057.16;;;18.57;100.00
62418;BME280;48456;54.242;10.280;2022-08-19T00:24:09;101058.06;;;18.56;100.00
62418;BME280;48456;54.242;10.280;2022-08-19T00:26:36;101051.91;;;18.54;100.00
62418;BME280;48456;54.242;10.280;2022-08-19T00:29:03;101044.72;;;18.55;100.00
62418;BME280;48456;54.242;10.280;2022-08-19T00:31:30;101039.59;;;18.49;100.00
62418;BME280;48456;54.242;10.280;2022-08-19T00:33:57;101030.78;;;18.45;100.00
62418;BME280;48456;54.242;10.280;2022-08-19T00:36:23;101036.16;;;18.45;100.00
62418;BME280;48456;54.242;10.280;2022-08-19T00:38:50;101030.78;;;18.45;100.00
62418;BME280;48456;54.242;10.280;2022-08-19T00:41:18;101033.50;;;18.43;100.00
62418;BME280;48456;54.242;10.280;2022-08-19T00:43:57;101025.47;;;18.43;100.00
62418;BME280;48456;54.242;10.280;2022-08-19T00:46:23;101030.88;;;18.42;100.00
62418;BME280;48456;54.242;10.280;2022-08-19T00:48:50;101025.63;;;18.39;100.00
62418;BME280;48456;54.242;10.280;2022-08-19T00:51:16;101030.16;;;18.37;100.00
62418;BME280;48456;54.242;10.280;2022-08-19T00:53:42;101021.38;;;18.31;100.00
62418;BME280;48456;54.242;10.280;2022-08-19T00:56:09;101021.38;;;18.31;100.00
62418;BME280;48456;54.242;10.280;2022-08-19T00:58:36;101026.88;;;18.28;100.00
62418;BME280;48456;54.242;10.280;2022-08-19T01:01:03;101027.78;;;18.27;100.00
62418;BME280;48456;54.242;10.280;2022-08-19T01:03:30;101021.50;;;18.28;100.00
62418;BME280;48456;54.242;10.280;2022-08-19T01:06:16;101020.53;;;18.31;100.00
62418;BME280;48456;54.242;10.280;2022-08-19T01:08:45;101016.91;;;18.32;100.00
62418;BME280;48456;54.242;10.280;2022-08-19T01:11:15;101015.94;;;18.35;100.00
62418;BME280;48456;54.242;10.280;2022-08-19T01:13:41;101011.63;;;18.30;100.00
62418;BME280;48456;54.242;10.280;2022-08-19T01:16:15;101009.81;;;18.31;100.00
62418;BME280;48456;54.242;10.280;2022-08-19T01:18:42;101006.31;;;18.29;100.00
62418;BME280;48456;54.242;10.280;2022-08-19T01:21:11;100999.19;;;18.28;100.00
62418;BME280;48456;54.242;10.280;2022-08-19T01:23:42;101003.81;;;18.24;100.00
62418;BME280;48456;54.242;10.280;2022-08-19T01:26:14;100995.88;;;18.21;100.00
62418;BME280;48456;54.242;10.280;2022-08-19T01:28:41;100998.59;;;18.20;100.00
62418;BME280;48456;54.242;10.280;2022-08-19T01:31:09;100992.59;;;18.11;100.00
62418;BME280;48456;54.242;10.280;2022-08-19T01:33:53;100999.78;;;18.11;100.00
62418;BME280;48456;54.242;10.280;2022-08-19T01:36:24;101004.34;;;18.05;100.00
62418;BME280;48456;54.242;10.280;2022-08-19T01:38:52;100999.13;;;18.02;100.00
62418;BME280;48456;54.242;10.280;2022-08-19T01:41:18;100999.16;;;18.01;100.00
62418;BME280;48456;54.242;10.280;2022-08-19T01:43:45;100995.66;;;17.99;100.00
62418;BME280;48456;54.242;10.280;2022-08-19T01:46:31;100990.34;;;17.97;100.00
62418;BME280;48456;54.242;10.280;2022-08-19T01:48:58;100984.13;;;17.97;100.00
62418;BME280;48456;54.242;10.280;2022-08-19T01:51:24;100980.63;;;17.95;100.00
62418;BME280;48456;54.242;10.280;2022-08-19T01:53:51;100982.44;;;17.94;100.00
62418;BME280;48456;54.242;10.280;2022-08-19T01:56:17;100975.25;;;17.95;100.00
62418;BME280;48456;54.242;10.280;2022-08-19T02:01:40;100972.72;;;17.91;100.00
62418;BME280;48456;54.242;10.280;2022-08-19T02:04:06;100981.59;;;17.92;100.00
62418;BME280;48456;54.242;10.280;2022-08-19T02:06:33;100974.41;;;17.94;100.00
62418;BME280;48456;54.242;10.280;2022-08-19T02:08:59;100966.44;;;17.92;100.00
62418;BME280;48456;54.242;10.280;2022-08-19T02:11:27;100966.47;;;17.91;100.00
62418;BME280;48456;54.242;10.280;2022-08-19T02:13:54;100952.19;;;17.90;100.00
62418;BME280;48456;54.242;10.280;2022-08-19T02:16:21;100954.88;;;17.90;100.00
62418;BME280;48456;54.242;10.280;2022-08-19T02:18:47;100944.09;;;17.93;100.00
62418;BME280;48456;54.242;10.280;2022-08-19T02:21:17;100934.28;;;17.94;100.00
62418;BME280;48456;54.242;10.280;2022-08-19T02:23:44;100949.34;;;17.97;100.00
62418;BME280;48456;54.242;10.280;2022-08-19T02:26:11;100951.03;;;17.99;100.00
62418;BME280;48456;54.242;10.280;2022-08-19T02:28:38;100947.44;;;18.00;100.00
62418;BME280;48456;54.242;10.280;2022-08-19T02:31:09;100951.91;;;18.00;100.00
62418;BME280;48456;54.242;10.280;2022-08-19T02:33:35;100965.28;;;18.00;100.00
62418;BME280;48456;54.242;10.280;2022-08-19T02:36:03;100952.88;;;17.97;100.00
62418;BME280;48456;54.242;10.280;2022-08-19T02:38:30;100958.19;;;17.99;100.00
62418;BME280;48456;54.242;10.280;2022-08-19T02:40:58;100947.53;;;17.97;100.00
62418;BME280;48456;54.242;10.280;2022-08-19T02:43:25;100948.47;;;17.96;100.00
62418;BME280;48456;54.242;10.280;2022-08-19T02:45:52;100947.75;;;17.91;100.00
62418;BME280;48456;54.242;10.280;2022-08-19T02:48:19;100946.84;;;17.90;100.00
62418;BME280;48456;54.242;10.280;2022-08-19T02:50:47;100950.38;;;17.92;100.00
62418;BME280;48456;54.242;10.280;2022-08-19T02:53:18;100948.47;;;17.96;100.00
62418;BME280;48456;54.242;10.280;2022-08-19T02:55:45;100956.47;;;17.96;100.00
62418;BME280;48456;54.242;10.280;2022-08-19T02:58:12;100960.06;;;17.97;100.00
62418;BME280;48456;54.242;10.280;2022-08-19T03:00:46;100964.50;;;17.96;100.00
62418;BME280;48456;54.242;10.280;2022-08-19T03:03:12;100960.84;;;17.99;100.00
62418;BME280;48456;54.242;10.280;2022-08-19T03:05:39;100965.28;;;18.00;100.00
62418;BME280;48456;54.242;10.280;2022-08-19T03:08:21;100965.28;;;18.00;100.00
62418;BME280;48456;54.242;10.280;2022-08-19T03:10:47;100962.50;;;18.03;100.00
62418;BME280;48456;54.242;10.280;2022-08-19T03:13:15;100968.75;;;18.03;100.00
62418;BME280;48456;54.242;10.280;2022-08-19T03:15:43;100965.09;;;18.06;100.00
62418;BME280;48456;54.242;10.280;2022-08-19T03:18:10;100964.16;;;18.07;100.00
62418;BME280;48456;54.242;10.280;2022-08-19T03:20:44;100968.56;;;18.10;100.00
62418;BME280;48456;54.242;10.280;2022-08-19T03:23:11;100961.47;;;18.09;100.00
62418;BME280;48456;54.242;10.280;2022-08-19T03:25:39;100957.00;;;18.08;100.00
62418;BME280;48456;54.242;10.280;2022-08-19T03:28:07;100967.72;;;18.08;100.00
62418;BME280;48456;54.242;10.280;2022-08-19T03:30:33;100965.09;;;18.06;100.00
62418;BME280;48456;54.242;10.280;2022-08-19T03:33:00;100966.88;;;18.05;100.00
62418;BME280;48456;54.242;10.280;2022-08-19T03:35:27;100965.13;;;18.04;100.00
62418;BME280;48456;54.242;10.280;2022-08-19T03:37:53;100970.50;;;18.04;100.00
62418;BME280;48456;54.242;10.280;2022-08-19T03:40:19;100966.13;;;18.02;100.00
62418;BME280;48456;54.242;10.280;2022-08-19T03:42:46;100977.63;;;18.04;100.00
62418;BME280;48456;54.242;10.280;2022-08-19T03:45:14;100985.75;;;18.02;100.00
62418;BME280;48456;54.242;10.280;2022-08-19T03:47:41;100988.47;;;18.01;100.00
62418;BME280;48456;54.242;10.280;2022-08-19T03:50:07;100994.72;;;18.00;100.00
62418;BME280;48456;54.242;10.280;2022-08-19T03:52:35;101002.59;;;18.04;100.00
62418;BME280;48456;54.242;10.280;2022-08-19T03:55:02;100996.31;;;18.05;100.00
62418;BME280;48456;54.242;10.280;2022-08-19T03:57:28;100999.88;;;18.06;100.00
62418;BME280;48456;54.242;10.280;2022-08-19T03:59:57;101004.28;;;18.09;100.00
62418;BME280;48456;54.242;10.280;2022-08-19T04:02:39;101012.28;;;18.10;100.00
62418;BME280;48456;54.242;10.280;2022-08-19T04:05:05;101010.41;;;18.12;100.00
62418;BME280;48456;54.242;10.280;2022-08-19T04:07:34;101006.94;;;18.10;100.00
62418;BME280;48456;54.242;10.280;2022-08-19T04:10:00;101006.94;;;18.10;100.00
62418;BME280;48456;54.242;10.280;2022-08-19T04:12:26;101014.91;;;18.12;100.00
62418;BME280;48456;54.242;10.280;2022-08-19T04:14:53;101018.44;;;18.12;100.00
62418;BME280;48456;54.242;10.280;2022-08-19T04:17:19;101024.69;;;18.13;100.00
62418;BME280;48456;54.242;10.280;2022-08-19T04:19:45;101017.59;;;18.12;100.00
62418;BME280;48456;54.242;10.280;2022-08-19T04:22:12;101022.00;;;18.13;100.00
62418;BME280;48456;54.242;10.280;2022-08-19T04:24:38;101030.03;;;18.13;100.00
62418;BME280;48456;54.242;10.280;2022-08-19T04:27:05;101031.78;;;18.14;100.00
62418;BME280;48456;54.242;10.280;2022-08-19T04:29:32;101039.72;;;18.17;100.00
62418;BME280;48456;54.242;10.280;2022-08-19T04:31:59;101041.50;;;18.16;100.00
62418;BME280;48456;54.242;10.280;2022-08-19T04:34:34;101034.28;;;18.20;100.00
62418;BME280;48456;54.242;10.280;2022-08-19T04:37:01;101035.13;;;18.21;100.00
62418;BME280;48456;54.242;10.280;2022-08-19T04:39:32;101035.09;;;18.22;100.00
62418;BME280;48456;54.242;10.280;2022-08-19T04:42:23;101031.56;;;18.22;100.00
62418;BME280;48456;54.242;10.280;2022-08-19T04:45:10;101035.94;;;18.24;100.00
62418;BME280;48456;54.242;10.280;2022-08-19T04:47:38;101035.03;;;18.24;100.00
62418;BME280;48456;54.242;10.280;2022-08-19T04:50:22;101040.25;;;18.28;100.00
62418;BME280;48456;54.242;10.280;2022-08-19T04:52:50;101041.13;;;18.29;100.00
62418;BME280;48456;54.242;10.280;2022-08-19T04:55:16;101038.38;;;18.30;100.00
62418;BME280;48456;54.242;10.280;2022-08-19T04:57:44;101036.59;;;18.31;100.00
62418;BME280;48456;54.242;10.280;2022-08-19T05:00:10;101035.72;;;18.30;100.00
62418;BME280;48456;54.242;10.280;2022-08-19T05:02:37;101039.22;;;18.33;100.00
62418;BME280;48456;54.242;10.280;2022-08-19T05:05:03;101030.16;;;18.37;100.00
62418;BME280;48456;54.242;10.280;2022-08-19T05:07:30;101030.16;;;18.37;100.00
62418;BME280;48456;54.242;10.280;2022-08-19T05:09:56;101026.59;;;18.36;100.00
62418;BME280;48456;54.242;10.280;2022-08-19T05:12:24;101031.16;;;18.34;100.00
62418;BME280;48456;54.242;10.280;2022-08-19T05:14:54;101028.38;;;18.36;100.00
62418;BME280;48456;54.242;10.280;2022-08-19T05:17:23;101038.06;;;18.40;100.00
62418;BME280;48456;54.242;10.280;2022-08-19T05:19:54;101038.88;;;18.43;100.00
62418;BME280;48456;54.242;10.280;2022-08-19T05:22:39;101045.91;;;18.46;100.00
62418;BME280;48456;54.242;10.280;2022-08-19T05:25:08;101052.03;;;18.50;100.00
62418;BME280;48456;54.242;10.280;2022-08-19T05:27:39;101044.84;;;18.52;100.00
62418;BME280;48456;54.242;10.280;2022-08-19T05:30:05;101044.63;;;18.58;100.00
62418;BME280;48456;54.242;10.280;2022-08-19T05:32:32;101049.03;;;18.59;100.00
62418;BME280;48456;54.242;10.280;2022-08-19T05:34:58;101051.81;;;18.57;100.00
62418;BME280;48456;54.242;10.280;2022-08-19T05:37:25;101055.34;;;18.58;100.00
62418;BME280;48456;54.242;10.280;2022-08-19T05:39:53;101061.59;;;18.59;100.00
62418;BME280;48456;54.242;10.280;2022-08-19T05:42:20;101063.19;;;18.64;100.00
62418;BME280;48456;54.242;10.280;2022-08-19T05:44:49;101065.72;;;18.67;100.00
62418;BME280;48456;54.242;10.280;2022-08-19T05:47:15;101071.09;;;18.67;100.00
62418;BME280;48456;54.242;10.280;2022-08-19T05:49:42;101059.38;;;18.70;100.00
62418;BME280;48456;54.242;10.280;2022-08-19T05:52:10;101060.28;;;18.70;100.00
62418;BME280;48456;54.242;10.280;2022-08-19T05:54:38;101060.31;;;18.69;100.00
62418;BME280;48456;54.242;10.280;2022-08-19T05:57:06;101055.91;;;18.68;100.00
62418;BME280;48456;54.242;10.280;2022-08-19T05:59:34;101060.38;;;18.67;100.00
62418;BME280;48456;54.242;10.280;2022-08-19T06:02:05;101055.81;;;18.71;100.00
62418;BME280;48456;54.242;10.280;2022-08-19T06:04:32;101054.78;;;18.75;100.00
62418;BME280;48456;54.242;10.280;2022-08-19T06:06:59;101060.84;;;18.80;100.00
62418;BME280;48456;54.242;10.280;2022-08-19T06:09:38;101057.94;;;18.87;100.00
62418;BME280;48456;54.242;10.280;2022-08-19T06:12:04;101062.31;;;18.89;100.00
62418;BME280;48456;54.242;10.280;2022-08-19T06:14:32;101055.81;;;18.96;100.00
62418;BME280;48456;54.242;10.280;2022-08-19T06:17:05;101052.13;;;18.99;100.00
62418;BME280;48456;54.242;10.280;2022-08-19T06:19:32;101053.03;;;19.00;100.00
62418;BME280;48456;54.242;10.280;2022-08-19T06:21:59;101047.41;;;19.07;100.00
62418;BME280;48456;54.242;10.280;2022-08-19T06:24:27;101042.97;;;19.06;100.00
62418;BME280;48456;54.242;10.280;2022-08-19T06:26:55;101038.06;;;19.19;100.00
62418;BME280;48456;54.242;10.280;2022-08-19T06:29:27;101041.03;;;19.35;100.00
62418;BME280;48456;54.242;10.280;2022-08-19T06:31:55;101045.88;;;19.50;100.00
62418;BME280;48456;54.242;10.280;2022-08-19T06:34:22;101042.66;;;19.64;100.00
62418;BME280;48456;54.242;10.280;2022-08-19T06:36:50;101040.69;;;19.69;100.00
62418;BME280;48456;54.242;10.280;2022-08-19T06:39:21;101041.38;;;19.74;100.00
62418;BME280;48456;54.242;10.280;2022-08-19T06:41:49;101036.94;;;19.73;100.00
62418;BME280;48456;54.242;10.280;2022-08-19T06:44:21;101045.75;;;19.77;100.00
62418;BME280;48456;54.242;10.280;2022-08-19T06:46:51;101044.00;;;19.76;100.00
62418;BME280;48456;54.242;10.280;2022-08-19T06:49:20;101048.47;;;19.75;100.00
62418;BME280;48456;54.242;10.280;2022-08-19T06:51:47;101046.69;;;19.76;100.00
62418;BME280;48456;54.242;10.280;2022-08-19T06:54:17;101050.47;;;19.70;100.00
62418;BME280;48456;54.242;10.280;2022-08-19T06:56:48;101042.66;;;19.64;100.00
62418;BME280;48456;54.242;10.280;2022-08-19T06:59:17;101048.09;;;19.62;100.00
62418;BME280;48456;54.242;10.280;2022-08-19T07:01:48;101046.16;;;19.66;100.00
62418;BME280;48456;54.242;10.280;2022-08-19T07:04:15;101049.44;;;19.74;100.00
62418;BME280;48456;54.242;10.280;2022-08-19T07:06:44;101052.84;;;19.78;100.00
62418;BME280;48456;54.242;10.280;2022-08-19T07:09:20;101052.00;;;19.77;100.00
62418;BME280;48456;54.242;10.280;2022-08-19T07:11:47;101062.78;;;19.76;100.00
62418;BME280;48456;54.242;10.280;2022-08-19T07:14:15;101065.34;;;19.79;100.00
62418;BME280;48456;54.242;10.280;2022-08-19T07:16:46;101067.78;;;19.85;100.00
62418;BME280;48456;54.242;10.280;2022-08-19T07:19:13;101060.75;;;19.82;100.00
62418;BME280;48456;54.242;10.280;2022-08-19T07:21:43;101063.38;;;19.84;100.00
62418;BME280;48456;54.242;10.280;2022-08-19T07:24:10;101062.44;;;19.85;100.00
62418;BME280;48456;54.242;10.280;2022-08-19T07:26:40;101072.28;;;19.84;100.00
62418;BME280;48456;54.242;10.280;2022-08-19T07:29:07;101075.09;;;19.81;100.00
62418;BME280;48456;54.242;10.280;2022-08-19T07:31:34;101068.78;;;19.82;100.00
62418;BME280;48456;54.242;10.280;2022-08-19T07:34:04;101079.28;;;19.89;100.00
62418;BME280;48456;54.242;10.280;2022-08-19T07:36:33;101074.47;;;19.97;100.00
62418;BME280;48456;54.242;10.280;2022-08-19T07:39:02;101078.59;;;20.07;100.00
62418;BME280;48456;54.242;10.280;2022-08-19T07:41:30;101070.22;;;20.15;100.00
62418;BME280;48456;54.242;10.280;2022-08-19T07:44:00;101072.63;;;20.21;100.00
62418;BME280;48456;54.242;10.280;2022-08-19T07:46:30;101080.34;;;20.31;100.00
62418;BME280;48456;54.242;10.280;2022-08-19T07:48:57;101084.78;;;20.32;100.00
62418;BME280;48456;54.242;10.280;2022-08-19T07:51:24;101081.81;;;20.38;100.00
62418;BME280;48456;54.242;10.280;2022-08-19T07:54:02;101084.59;;;20.36;100.00
62418;BME280;48456;54.242;10.280;2022-08-19T07:56:28;101081.75;;;20.39;100.00
62418;BME280;48456;54.242;10.280;2022-08-19T07:58:55;101093.41;;;20.40;100.00
62418;BME280;48456;54.242;10.280;2022-08-19T08:01:22;101095.25;;;20.38;100.00
62418;BME280;48456;54.242;10.280;2022-08-19T08:03:51;101088.34;;;20.32;100.00
62418;BME280;48456;54.242;10.280;2022-08-19T08:06:39;101092.84;;;20.32;100.00
62418;BME280;48456;54.242;10.280;2022-08-19T08:09:26;101088.34;;;20.32;100.00
62418;BME280;48456;54.242;10.280;2022-08-19T08:11:55;101096.31;;;20.34;100.00
62418;BME280;48456;54.242;10.280;2022-08-19T08:14:32;101088.66;;;20.24;100.00
62418;BME280;48456;54.242;10.280;2022-08-19T08:17:00;101101.22;;;20.24;100.00
62418;BME280;48456;54.242;10.280;2022-08-19T08:19:27;101104.03;;;20.21;100.00
62418;BME280;48456;54.242;10.280;2022-08-19T08:21:56;101098.88;;;20.15;100.00
62418;BME280;48456;54.242;10.280;2022-08-19T08:24:24;101103.50;;;20.11;100.00
62418;BME280;48456;54.242;10.280;2022-08-19T08:26:54;101099.13;;;20.08;100.00
62418;BME280;48456;54.242;10.280;2022-08-19T08:29:23;101108.00;;;20.10;100.00
62418;BME280;48456;54.242;10.280;2022-08-19T08:31:51;101109.56;;;20.16;100.00
62418;BME280;48456;54.242;10.280;2022-08-19T08:34:25;101112.25;;;20.16;100.00
62418;BME280;48456;54.242;10.280;2022-08-19T08:36:51;101111.50;;;20.12;100.00
62418;BME280;48456;54.242;10.280;2022-08-19T08:39:19;101116.19;;;20.07;100.00
62418;BME280;48456;54.242;10.280;2022-08-19T08:41:49;101118.16;;;20.02;100.00
62418;BME280;48456;54.242;10.280;2022-08-19T08:45:03;101116.47;;;19.99;100.00
62418;BME280;48456;54.242;10.280;2022-08-19T08:47:11;101117.50;;;19.95;100.00
62418;BME280;48456;54.242;10.280;2022-08-19T08:49:53;101121.31;;;19.90;100.00
62418;BME280;48456;54.242;10.280;2022-08-19T08:54:59;101131.22;;;19.87;100.00
62418;BME280;48456;54.242;10.280;2022-08-19T08:57:27;101129.63;;;19.82;100.00
62418;BME280;48456;54.242;10.280;2022-08-19T09:00:04;101130.59;;;19.81;100.00
62418;BME280;48456;54.242;10.280;2022-08-19T09:02:40;101129.84;;;19.77;100.00
62418;BME280;48456;54.242;10.280;2022-08-19T09:05:09;101133.56;;;19.73;100.00
62418;BME280;48456;54.242;10.280;2022-08-19T09:15:16;101135.31;;;19.74;100.00
62418;BME280;48456;54.242;10.280;2022-08-19T09:17:54;101128.31;;;19.70;100.00
62418;BME280;48456;54.242;10.280;2022-08-19T09:20:22;101130.03;;;19.71;100.00
62418;BME280;48456;54.242;10.280;2022-08-19T09:22:51;101135.59;;;19.66;100.00
62418;BME280;48456;54.242;10.280;2022-08-19T09:25:21;101139.97;;;19.69;100.00
62418;BME280;48456;54.242;10.280;2022-08-19T09:27:52;101140.69;;;19.74;100.00
62418;BME280;48456;54.242;10.280;2022-08-19T09:30:21;101138.44;;;19.61;100.00
62418;BME280;48456;54.242;10.280;2022-08-19T09:32:48;101136.56;;;19.64;100.00
62418;BME280;48456;54.242;10.280;2022-08-19T09:35:18;101140.03;;;19.67;100.00
62418;BME280;48456;54.242;10.280;2022-08-19T09:37:45;101132.97;;;19.65;100.00
62418;BME280;48456;54.242;10.280;2022-08-19T09:40:11;101151.41;;;19.74;100.00
62418;BME280;48456;54.242;10.280;2022-08-19T09:42:38;101138.69;;;19.79;100.00
62418;BME280;48456;54.242;10.280;2022-08-19T09:45:16;101136.63;;;19.86;100.00
62418;BME280;48456;54.242;10.280;2022-08-19T09:47:43;101146.38;;;19.89;100.00
62418;BME280;48456;54.242;10.280;2022-08-19T09:50:12;101148.84;;;19.95;100.00
62418;BME280;48456;54.242;10.280;2022-08-19T09:52:41;101150.59;;;19.96;100.00
62418;BME280;48456;54.242;10.280;2022-08-19T09:55:20;101150.38;;;20.02;100.00
62418;BME280;48456;54.242;10.280;2022-08-19T09:57:49;101152.91;;;20.07;100.00
62418;BME280;48456;54.242;10.280;2022-08-19T10:00:15;101145.84;;;20.04;100.00
62418;BME280;48456;54.242;10.280;2022-08-19T10:02:41;101144.91;;;20.05;100.00
62418;BME280;48456;54.242;10.280;2022-08-19T10:05:10;101146.63;;;20.06;100.00
62418;BME280;48456;54.242;10.280;2022-08-19T10:07:56;101142.16;;;20.07;100.00
62418;BME280;48456;54.242;10.280;2022-08-19T10:10:22;101135.25;;;19.99;100.00
62418;BME280;48456;54.242;10.280;2022-08-19T10:12:50;101137.97;;;19.98;100.00
62418;BME280;48456;54.242;10.280;2022-08-19T10:15:16;101139.91;;;19.94;100.00
62418;BME280;48456;54.242;10.280;2022-08-19T10:17:54;101138.91;;;19.97;100.00
62418;BME280;48456;54.242;10.280;2022-08-19T10:20:21;101139.06;;;19.94;100.00
62418;BME280;48456;54.242;10.280;2022-08-19T10:22:49;101142.69;;;19.91;100.00
62418;BME280;48456;54.242;10.280;2022-08-19T10:25:18;101142.00;;;19.86;100.00
62418;BME280;48456;54.242;10.280;2022-08-19T10:27:44;101140.25;;;19.85;100.00
62418;BME280;48456;54.242;10.280;2022-08-19T10:30:16;101146.38;;;19.89;100.00
62418;BME280;48456;54.242;10.280;2022-08-19T10:32:45;101143.69;;;19.89;100.00
62418;BME280;48456;54.242;10.280;2022-08-19T10:35:12;101141.16;;;19.85;100.00
62418;BME280;48456;54.242;10.280;2022-08-19T10:37:41;101141.41;;;19.78;100.00
62418;BME280;48456;54.242;10.280;2022-08-19T10:40:22;101143.66;;;19.66;100.00
62418;BME280;48456;54.242;10.280;2022-08-19T10:42:49;101143.88;;;19.60;100.00
62418;BME280;48456;54.242;10.280;2022-08-19T10:45:15;101145.56;;;19.63;100.00
62418;BME280;48456;54.242;10.280;2022-08-19T10:47:42;101142.63;;;19.70;100.00
62418;BME280;48456;54.242;10.280;2022-08-19T10:50:09;101141.47;;;19.76;100.00
62418;BME280;48456;54.242;10.280;2022-08-19T10:52:55;101140.38;;;19.82;100.00
62418;BME280;48456;54.242;10.280;2022-08-19T10:55:22;101140.16;;;19.88;100.00
62418;BME280;48456;54.242;10.280;2022-08-19T10:58:17;101128.00;;;20.03;100.00
62418;BME280;48456;54.242;10.280;2022-08-19T11:00:56;101128.31;;;20.18;100.00
62418;BME280;48456;54.242;10.280;2022-08-19T11:03:23;101129.69;;;20.28;100.00
62418;BME280;48456;54.242;10.280;2022-08-19T11:05:59;101127.50;;;20.38;100.00
62418;BME280;48456;54.242;10.280;2022-08-19T11:08:26;101123.31;;;20.53;100.00
62418;BME280;48456;54.242;10.280;2022-08-19T11:10:54;101130.84;;;20.65;100.00
62418;BME280;48456;54.242;10.280;2022-08-19T11:13:27;101121.28;;;20.81;100.00
62418;BME280;48456;54.242;10.280;2022-08-19T11:15:58;101130.09;;;20.84;100.00
62418;BME280;48456;54.242;10.280;2022-08-19T11:18:31;101128.91;;;20.92;100.00
62418;BME280;48456;54.242;10.280;2022-08-19T11:21:14;101121.94;;;21.08;100.00
62418;BME280;48456;54.242;10.280;2022-08-19T11:23:43;101125.44;;;21.10;100.00
62418;BME280;48456;54.242;10.280;2022-08-19T11:26:09;101123.28;;;21.19;100.00
62418;BME280;48456;54.242;10.280;2022-08-19T11:28:36;101116.97;;;21.20;100.00
62418;BME280;48456;54.242;10.280;2022-08-19T11:31:02;101124.16;;;21.19;100.00
62418;BME280;48456;54.242;10.280;2022-08-19T11:33:32;101127.66;;;21.21;100.00
62418;BME280;48456;54.242;10.280;2022-08-19T11:35:59;101130.28;;;21.23;100.00
62418;BME280;48456;54.242;10.280;2022-08-19T11:38:28;101122.53;;;21.15;100.00
62418;BME280;48456;54.242;10.280;2022-08-19T11:40:57;101121.56;;;21.18;100.00
62418;BME280;48456;54.242;10.280;2022-08-19T11:43:24;101117.16;;;21.15;100.00
62418;BME280;48456;54.242;10.280;2022-08-19T11:45:53;101117.25;;;21.13;100.00
62418;BME280;48456;54.242;10.280;2022-08-19T11:48:19;101114.41;;;21.16;100.00
62418;BME280;48456;54.242;10.280;2022-08-19T11:50:51;101113.25;;;21.22;100.00
62418;BME280;48456;54.242;10.280;2022-08-19T11:53:18;101111.59;;;21.20;100.00
62418;BME280;48456;54.242;10.280;2022-08-19T11:55:46;101110.31;;;21.28;100.00
62418;BME280;48456;54.242;10.280;2022-08-19T11:58:14;101111.16;;;21.29;100.00
62418;BME280;48456;54.242;10.280;2022-08-19T12:00:44;101123.16;;;21.22;100.00
62418;BME280;48456;54.242;10.280;2022-08-19T12:03:12;101118.72;;;21.21;100.00
62418;BME280;48456;54.242;10.280;2022-08-19T12:05:38;101126.19;;;21.14;100.00
62418;BME280;48456;54.242;10.280;2022-08-19T12:08:05;101124.63;;;21.08;100.00
62418;BME280;48456;54.242;10.280;2022-08-19T12:10:33;101131.22;;;21.01;100.00
62418;BME280;48456;54.242;10.280;2022-08-19T12:12:59;101128.00;;;20.93;100.00
62418;BME280;48456;54.242;10.280;2022-08-19T12:15:26;101127.41;;;20.84;100.00
62418;BME280;48456;54.242;10.280;2022-08-19T12:18:02;101127.59;;;20.80;100.00
62418;BME280;48456;54.242;10.280;2022-08-19T12:20:29;101132.19;;;20.77;100.00
62418;BME280;48456;54.242;10.280;2022-08-19T12:22:55;101125.19;;;20.73;100.00
62418;BME280;48456;54.242;10.280;2022-08-19T12:25:22;101133.38;;;20.70;100.00
62418;BME280;48456;54.242;10.280;2022-08-19T12:27:48;101134.16;;;20.72;100.00
62418;BME280;48456;54.242;10.280;2022-08-19T12:30:22;101138.13;;;20.63;100.00
62418;BME280;48456;54.242;10.280;2022-08-19T12:32:49;101139.06;;;20.62;100.00
62418;BME280;48456;54.242;10.280;2022-08-19T12:35:17;101133.13;;;20.54;100.00
62418;BME280;48456;54.242;10.280;2022-08-19T12:37:47;101134.44;;;20.44;100.00
62418;BME280;48456;54.242;10.280;2022-08-19T12:40:22;101138.13;;;20.41;100.00
62418;BME280;48456;54.242;10.280;2022-08-19T12:42:51;101136.56;;;20.35;100.00
62418;BME280;48456;54.242;10.280;2022-08-19T12:45:17;101132.13;;;20.34;100.00
62418;BME280;48456;54.242;10.280;2022-08-19T12:47:44;101131.25;;;20.34;100.00
62418;BME280;48456;54.242;10.280;2022-08-19T12:50:12;101133.00;;;20.35;100.00
62418;BME280;48456;54.242;10.280;2022-08-19T12:52:39;101137.56;;;20.33;100.00
62418;BME280;48456;54.242;10.280;2022-08-19T12:55:07;101135.66;;;20.36;100.00